sensor_id;sensor_type;location;lat;lon;timestamp;P1;durP1;ratioP1;P2;durP2;ratioP2
27642;SDS011;15053;48.618;10.024;2023-07-29T00:00:01;3.03;;;1.60;;
27642;SDS011;15053;48.618;10.024;2023-07-29T00:02:37;3.13;;;1.63;;
27642;SDS011;15053;48.618;10.024;2023-07-29T00:05:04;3.45;;;1.50;;
27642;SDS011;15053;48.618;10.024;2023-07-29T00:07:31;3.30;;;1.48;;
27642;SDS011;15053;48.618;10.024;2023-07-29T00:09:57;1.85;;;1.50;;
27642;SDS011;15053;48.618;10.024;2023-07-29T00:12:24;3.28;;;1.98;;
27642;SDS011;15053;48.618;10.024;2023-07-29T00:14:51;3.85;;;1.80;;
27642;SDS011;15053;48.618;10.024;2023-07-29T00:17:17;2.58;;;1.90;;
27642;SDS011;15053;48.618;10.024;2023-07-29T00:19:46;1.85;;;1.65;;
27642;SDS011;15053;48.618;10.024;2023-07-29T00:22:13;2.70;;;1.38;;
27642;SDS011;15053;48.618;10.024;2023-07-29T00:24:39;2.28;;;1.88;;
27642;SDS011;15053;48.618;10.024;2023-07-29T00:27:07;2.58;;;1.75;;
27642;SDS011;15053;48.618;10.024;2023-07-29T00:29:33;2.17;;;1.52;;
27642;SDS011;15053;48.618;10.024;2023-07-29T00:32:00;2.78;;;1.60;;
27642;SDS011;15053;48.618;10.024;2023-07-29T00:34:27;3.25;;;1.80;;
27642;SDS011;15053;48.618;10.024;2023-07-29T00:36:53;3.97;;;2.20;;
27642;SDS011;15053;48.618;10.024;2023-07-29T00:39:20;4.47;;;2.00;;
27642;SDS011;15053;48.618;10.024;2023-07-29T00:41:46;2.80;;;1.75;;
27642;SDS011;15053;48.618;10.024;2023-07-29T00:44:13;4.50;;;2.08;;
27642;SDS011;15053;48.618;10.024;2023-07-29T00:46:40;3.95;;;1.88;;
27642;SDS011;15053;48.618;10.024;2023-07-29T00:49:07;3.45;;;2.03;;
27642;SDS011;15053;48.618;10.024;2023-07-29T00:51:34;3.03;;;2.33;;
27642;SDS011;15053;48.618;10.024;2023-07-29T00:54:01;5.82;;;2.70;;
27642;SDS011;15053;48.618;10.024;2023-07-29T00:56:28;4.00;;;1.98;;
27642;SDS011;15053;48.618;10.024;2023-07-29T00:58:54;3.33;;;2.10;;
27642;SDS011;15053;48.618;10.024;2023-07-29T01:01:26;3.00;;;2.15;;
27642;SDS011;15053;48.618;10.024;2023-07-29T01:03:53;3.03;;;2.35;;
27642;SDS011;15053;48.618;10.024;2023-07-29T01:09:04;5.13;;;2.17;;
27642;SDS011;15053;48.618;10.024;2023-07-29T01:14:24;3.10;;;2.13;;
27642;SDS011;15053;48.618;10.024;2023-07-29T01:17:00;3.53;;;2.55;;
27642;SDS011;15053;48.618;10.024;2023-07-29T01:22:36;6.50;;;3.10;;
27642;SDS011;15053;48.618;10.024;2023-07-29T01:25:03;5.45;;;3.00;;
27642;SDS011;15053;48.618;10.024;2023-07-29T01:27:30;6.57;;;2.78;;
27642;SDS011;15053;48.618;10.024;2023-07-29T01:29:58;4.13;;;3.20;;
27642;SDS011;15053;48.618;10.024;2023-07-29T01:32:27;3.15;;;2.65;;
27642;SDS011;15053;48.618;10.024;2023-07-29T01:37:38;5.30;;;3.17;;
27642;SDS011;15053;48.618;10.024;2023-07-29T01:40:07;3.90;;;3.20;;
27642;SDS011;15053;48.618;10.024;2023-07-29T01:42:35;6.35;;;4.00;;
27642;SDS011;15053;48.618;10.024;2023-07-29T01:45:03;8.05;;;3.83;;
27642;SDS011;15053;48.618;10.024;2023-07-29T01:47:31;5.63;;;2.88;;
27642;SDS011;15053;48.618;10.024;2023-07-29T01:49:57;4.40;;;3.33;;
27642;SDS011;15053;48.618;10.024;2023-07-29T01:52:24;6.60;;;3.28;;
27642;SDS011;15053;48.618;10.024;2023-07-29T01:54:50;4.07;;;3.22;;
27642;SDS011;15053;48.618;10.024;2023-07-29T01:57:17;8.75;;;3.33;;
27642;SDS011;15053;48.618;10.024;2023-07-29T01:59:43;5.63;;;3.15;;
27642;SDS011;15053;48.618;10.024;2023-07-29T02:02:10;8.88;;;3.38;;
27642;SDS011;15053;48.618;10.024;2023-07-29T02:04:37;7.88;;;3.75;;
27642;SDS011;15053;48.618;10.024;2023-07-29T02:07:03;9.98;;;3.47;;
27642;SDS011;15053;48.618;10.024;2023-07-29T02:09:30;4.55;;;3.70;;
27642;SDS011;15053;48.618;10.024;2023-07-29T02:11:58;4.85;;;4.30;;
27642;SDS011;15053;48.618;10.024;2023-07-29T02:14:24;6.63;;;3.97;;
27642;SDS011;15053;48.618;10.024;2023-07-29T02:16:51;7.63;;;3.40;;
27642;SDS011;15053;48.618;10.024;2023-07-29T02:19:18;6.32;;;3.95;;
27642;SDS011;15053;48.618;10.024;2023-07-29T02:21:46;9.63;;;3.95;;
27642;SDS011;15053;48.618;10.024;2023-07-29T02:24:13;6.25;;;3.90;;
27642;SDS011;15053;48.618;10.024;2023-07-29T02:26:39;4.75;;;3.80;;
27642;SDS011;15053;48.618;10.024;2023-07-29T02:29:06;9.55;;;4.70;;
27642;SDS011;15053;48.618;10.024;2023-07-29T02:31:33;5.22;;;3.90;;
27642;SDS011;15053;48.618;10.024;2023-07-29T02:34:01;7.30;;;3.85;;
27642;SDS011;15053;48.618;10.024;2023-07-29T02:36:27;6.40;;;4.15;;
27642;SDS011;15053;48.618;10.024;2023-07-29T02:38:54;7.78;;;4.68;;
27642;SDS011;15053;48.618;10.024;2023-07-29T02:41:20;12.68;;;5.25;;
27642;SDS011;15053;48.618;10.024;2023-07-29T02:43:48;8.82;;;5.57;;
27642;SDS011;15053;48.618;10.024;2023-07-29T02:46:15;10.25;;;5.55;;
27642;SDS011;15053;48.618;10.024;2023-07-29T02:48:42;5.95;;;3.80;;
27642;SDS011;15053;48.618;10.024;2023-07-29T02:51:10;8.77;;;5.45;;
27642;SDS011;15053;48.618;10.024;2023-07-29T02:53:37;7.53;;;3.80;;
27642;SDS011;15053;48.618;10.024;2023-07-29T02:56:04;6.40;;;3.92;;
27642;SDS011;15053;48.618;10.024;2023-07-29T02:58:34;5.05;;;3.42;;
27642;SDS011;15053;48.618;10.024;2023-07-29T03:01:02;6.32;;;4.13;;
27642;SDS011;15053;48.618;10.024;2023-07-29T03:03:30;6.47;;;4.30;;
27642;SDS011;15053;48.618;10.024;2023-07-29T03:06:01;6.55;;;4.20;;
27642;SDS011;15053;48.618;10.024;2023-07-29T03:08:30;5.10;;;3.83;;
27642;SDS011;15053;48.618;10.024;2023-07-29T03:10:57;11.40;;;4.43;;
27642;SDS011;15053;48.618;10.024;2023-07-29T03:13:24;7.45;;;4.85;;
27642;SDS011;15053;48.618;10.024;2023-07-29T03:15:51;9.25;;;5.05;;
27642;SDS011;15053;48.618;10.024;2023-07-29T03:18:18;9.68;;;5.53;;
27642;SDS011;15053;48.618;10.024;2023-07-29T03:20:44;8.02;;;4.90;;
27642;SDS011;15053;48.618;10.024;2023-07-29T03:23:11;8.85;;;4.47;;
27642;SDS011;15053;48.618;10.024;2023-07-29T03:25:37;6.50;;;4.88;;
27642;SDS011;15053;48.618;10.024;2023-07-29T03:28:04;5.55;;;3.75;;
27642;SDS011;15053;48.618;10.024;2023-07-29T03:30:31;6.28;;;4.00;;
27642;SDS011;15053;48.618;10.024;2023-07-29T03:32:57;10.88;;;4.72;;
27642;SDS011;15053;48.618;10.024;2023-07-29T03:35:24;6.80;;;3.83;;
27642;SDS011;15053;48.618;10.024;2023-07-29T03:37:51;6.18;;;4.13;;
27642;SDS011;15053;48.618;10.024;2023-07-29T03:40:17;6.95;;;4.28;;
27642;SDS011;15053;48.618;10.024;2023-07-29T03:42:44;8.02;;;4.60;;
27642;SDS011;15053;48.618;10.024;2023-07-29T03:45:11;7.50;;;4.38;;
27642;SDS011;15053;48.618;10.024;2023-07-29T03:47:38;7.88;;;4.35;;
27642;SDS011;15053;48.618;10.024;2023-07-29T03:50:05;8.13;;;4.18;;
27642;SDS011;15053;48.618;10.024;2023-07-29T03:52:32;7.57;;;4.45;;
27642;SDS011;15053;48.618;10.024;2023-07-29T03:54:58;6.18;;;4.63;;
27642;SDS011;15053;48.618;10.024;2023-07-29T03:57:25;7.25;;;4.57;;
27642;SDS011;15053;48.618;10.024;2023-07-29T03:59:52;8.13;;;5.20;;
27642;SDS011;15053;48.618;10.024;2023-07-29T04:02:18;8.82;;;5.05;;
27642;SDS011;15053;48.618;10.024;2023-07-29T04:04:45;8.32;;;5.57;;
27642;SDS011;15053;48.618;10.024;2023-07-29T04:07:14;7.63;;;5.45;;
27642;SDS011;15053;48.618;10.024;2023-07-29T04:09:41;6.18;;;5.13;;
27642;SDS011;15053;48.618;10.024;2023-07-29T04:12:09;7.50;;;4.28;;
27642;SDS011;15053;48.618;10.024;2023-07-29T04:14:36;7.50;;;5.38;;
27642;SDS011;15053;48.618;10.024;2023-07-29T04:17:03;10.23;;;5.88;;
27642;SDS011;15053;48.618;10.024;2023-07-29T04:19:29;12.70;;;6.65;;
27642;SDS011;15053;48.618;10.024;2023-07-29T04:21:56;8.63;;;5.47;;
27642;SDS011;15053;48.618;10.024;2023-07-29T04:24:23;5.28;;;4.35;;
27642;SDS011;15053;48.618;10.024;2023-07-29T04:26:50;8.05;;;6.18;;
27642;SDS011;15053;48.618;10.024;2023-07-29T04:29:16;11.48;;;7.10;;
27642;SDS011;15053;48.618;10.024;2023-07-29T04:31:43;9.40;;;6.90;;
27642;SDS011;15053;48.618;10.024;2023-07-29T04:34:10;9.20;;;6.13;;
27642;SDS011;15053;48.618;10.024;2023-07-29T04:36:37;9.55;;;4.95;;
27642;SDS011;15053;48.618;10.024;2023-07-29T04:39:05;8.57;;;6.63;;
27642;SDS011;15053;48.618;10.024;2023-07-29T04:41:31;8.40;;;5.68;;
27642;SDS011;15053;48.618;10.024;2023-07-29T04:43:58;8.15;;;5.10;;
27642;SDS011;15053;48.618;10.024;2023-07-29T04:46:24;7.82;;;5.00;;
27642;SDS011;15053;48.618;10.024;2023-07-29T04:48:51;5.90;;;4.88;;
27642;SDS011;15053;48.618;10.024;2023-07-29T04:51:17;5.80;;;4.70;;
27642;SDS011;15053;48.618;10.024;2023-07-29T04:53:44;6.72;;;4.38;;
27642;SDS011;15053;48.618;10.024;2023-07-29T04:56:11;8.18;;;4.40;;
27642;SDS011;15053;48.618;10.024;2023-07-29T04:58:37;7.38;;;4.32;;
27642;SDS011;15053;48.618;10.024;2023-07-29T05:01:04;5.72;;;4.40;;
27642;SDS011;15053;48.618;10.024;2023-07-29T05:03:31;5.47;;;4.18;;
27642;SDS011;15053;48.618;10.024;2023-07-29T05:05:58;6.97;;;4.10;;
27642;SDS011;15053;48.618;10.024;2023-07-29T05:08:26;6.53;;;3.83;;
27642;SDS011;15053;48.618;10.024;2023-07-29T05:10:53;6.85;;;3.85;;
27642;SDS011;15053;48.618;10.024;2023-07-29T05:13:22;4.47;;;3.80;;
27642;SDS011;15053;48.618;10.024;2023-07-29T05:15:49;5.00;;;3.90;;
27642;SDS011;15053;48.618;10.024;2023-07-29T05:18:16;6.10;;;4.05;;
27642;SDS011;15053;48.618;10.024;2023-07-29T05:20:44;5.80;;;3.80;;
27642;SDS011;15053;48.618;10.024;2023-07-29T05:23:10;6.35;;;3.70;;
27642;SDS011;15053;48.618;10.024;2023-07-29T05:25:37;5.00;;;3.55;;
27642;SDS011;15053;48.618;10.024;2023-07-29T05:28:04;6.03;;;4.13;;
27642;SDS011;15053;48.618;10.024;2023-07-29T05:30:31;6.47;;;4.72;;
27642;SDS011;15053;48.618;10.024;2023-07-29T05:33:00;7.07;;;5.68;;
27642;SDS011;15053;48.618;10.024;2023-07-29T05:35:27;9.63;;;5.05;;
27642;SDS011;15053;48.618;10.024;2023-07-29T05:37:54;5.93;;;4.30;;
27642;SDS011;15053;48.618;10.024;2023-07-29T05:40:20;7.93;;;3.92;;
27642;SDS011;15053;48.618;10.024;2023-07-29T05:42:47;7.38;;;3.90;;
27642;SDS011;15053;48.618;10.024;2023-07-29T05:45:14;5.78;;;4.00;;
27642;SDS011;15053;48.618;10.024;2023-07-29T05:47:40;6.07;;;3.90;;
27642;SDS011;15053;48.618;10.024;2023-07-29T05:50:07;6.63;;;4.10;;
27642;SDS011;15053;48.618;10.024;2023-07-29T05:52:34;4.20;;;3.80;;
27642;SDS011;15053;48.618;10.024;2023-07-29T05:55:01;8.25;;;3.90;;
27642;SDS011;15053;48.618;10.024;2023-07-29T05:57:28;6.38;;;4.20;;
27642;SDS011;15053;48.618;10.024;2023-07-29T05:59:54;5.90;;;4.15;;
27642;SDS011;15053;48.618;10.024;2023-07-29T06:02:21;5.65;;;3.95;;
27642;SDS011;15053;48.618;10.024;2023-07-29T06:04:48;4.68;;;3.72;;
27642;SDS011;15053;48.618;10.024;2023-07-29T06:07:14;10.98;;;4.50;;
27642;SDS011;15053;48.618;10.024;2023-07-29T06:09:41;6.00;;;3.80;;
27642;SDS011;15053;48.618;10.024;2023-07-29T06:12:08;5.82;;;4.22;;
27642;SDS011;15053;48.618;10.024;2023-07-29T06:14:34;14.27;;;5.75;;
27642;SDS011;15053;48.618;10.024;2023-07-29T06:17:01;13.23;;;5.35;;
27642;SDS011;15053;48.618;10.024;2023-07-29T06:19:27;8.30;;;4.95;;
27642;SDS011;15053;48.618;10.024;2023-07-29T06:21:55;8.80;;;4.70;;
27642;SDS011;15053;48.618;10.024;2023-07-29T06:24:22;5.70;;;4.55;;
27642;SDS011;15053;48.618;10.024;2023-07-29T06:26:48;8.13;;;4.50;;
27642;SDS011;15053;48.618;10.024;2023-07-29T06:29:15;8.32;;;4.97;;
27642;SDS011;15053;48.618;10.024;2023-07-29T06:31:41;5.65;;;4.53;;
27642;SDS011;15053;48.618;10.024;2023-07-29T06:34:08;6.50;;;4.78;;
27642;SDS011;15053;48.618;10.024;2023-07-29T06:36:34;9.25;;;4.93;;
27642;SDS011;15053;48.618;10.024;2023-07-29T06:39:01;5.65;;;4.25;;
27642;SDS011;15053;48.618;10.024;2023-07-29T06:41:28;8.10;;;4.35;;
27642;SDS011;15053;48.618;10.024;2023-07-29T06:43:54;7.90;;;4.60;;
27642;SDS011;15053;48.618;10.024;2023-07-29T06:46:21;5.88;;;4.38;;
27642;SDS011;15053;48.618;10.024;2023-07-29T06:48:48;5.10;;;4.38;;
27642;SDS011;15053;48.618;10.024;2023-07-29T06:51:14;8.73;;;4.60;;
27642;SDS011;15053;48.618;10.024;2023-07-29T06:53:41;6.28;;;4.75;;
27642;SDS011;15053;48.618;10.024;2023-07-29T06:56:07;6.93;;;4.70;;
27642;SDS011;15053;48.618;10.024;2023-07-29T06:58:34;6.32;;;4.13;;
27642;SDS011;15053;48.618;10.024;2023-07-29T07:01:01;6.40;;;4.47;;
27642;SDS011;15053;48.618;10.024;2023-07-29T07:03:29;5.97;;;3.97;;
27642;SDS011;15053;48.618;10.024;2023-07-29T07:05:56;5.50;;;4.32;;
27642;SDS011;15053;48.618;10.024;2023-07-29T07:08:22;5.45;;;4.45;;
27642;SDS011;15053;48.618;10.024;2023-07-29T07:10:49;5.90;;;4.45;;
27642;SDS011;15053;48.618;10.024;2023-07-29T07:13:15;7.32;;;4.57;;
27642;SDS011;15053;48.618;10.024;2023-07-29T07:15:42;6.28;;;4.75;;
27642;SDS011;15053;48.618;10.024;2023-07-29T07:18:08;5.50;;;4.20;;
27642;SDS011;15053;48.618;10.024;2023-07-29T07:20:35;5.50;;;3.72;;
27642;SDS011;15053;48.618;10.024;2023-07-29T07:23:03;6.00;;;4.05;;
27642;SDS011;15053;48.618;10.024;2023-07-29T07:25:31;6.18;;;3.90;;
27642;SDS011;15053;48.618;10.024;2023-07-29T07:27:58;5.05;;;4.22;;
27642;SDS011;15053;48.618;10.024;2023-07-29T07:30:24;4.65;;;4.20;;
27642;SDS011;15053;48.618;10.024;2023-07-29T07:32:51;5.63;;;4.82;;
27642;SDS011;15053;48.618;10.024;2023-07-29T07:35:17;6.03;;;4.00;;
27642;SDS011;15053;48.618;10.024;2023-07-29T07:37:45;9.18;;;4.50;;
27642;SDS011;15053;48.618;10.024;2023-07-29T07:40:11;6.20;;;4.40;;
27642;SDS011;15053;48.618;10.024;2023-07-29T07:42:38;6.30;;;4.32;;
27642;SDS011;15053;48.618;10.024;2023-07-29T07:45:04;7.18;;;5.00;;
27642;SDS011;15053;48.618;10.024;2023-07-29T07:47:31;6.68;;;4.78;;
27642;SDS011;15053;48.618;10.024;2023-07-29T07:49:58;13.73;;;4.78;;
27642;SDS011;15053;48.618;10.024;2023-07-29T07:52:24;6.25;;;4.55;;
27642;SDS011;15053;48.618;10.024;2023-07-29T07:54:52;10.35;;;5.32;;
27642;SDS011;15053;48.618;10.024;2023-07-29T07:57:22;5.78;;;4.57;;
27642;SDS011;15053;48.618;10.024;2023-07-29T07:59:49;6.03;;;4.50;;
27642;SDS011;15053;48.618;10.024;2023-07-29T08:02:17;6.38;;;4.50;;
27642;SDS011;15053;48.618;10.024;2023-07-29T08:04:43;8.55;;;4.82;;
27642;SDS011;15053;48.618;10.024;2023-07-29T08:07:10;8.18;;;5.50;;
27642;SDS011;15053;48.618;10.024;2023-07-29T08:09:36;11.68;;;5.15;;
27642;SDS011;15053;48.618;10.024;2023-07-29T08:12:03;4.47;;;2.60;;
27642;SDS011;15053;48.618;10.024;2023-07-29T08:14:29;3.03;;;1.92;;
27642;SDS011;15053;48.618;10.024;2023-07-29T08:16:56;3.80;;;2.00;;
27642;SDS011;15053;48.618;10.024;2023-07-29T08:19:22;3.55;;;1.92;;
27642;SDS011;15053;48.618;10.024;2023-07-29T08:21:49;2.45;;;1.52;;
27642;SDS011;15053;48.618;10.024;2023-07-29T08:24:15;8.77;;;1.60;;
27642;SDS011;15053;48.618;10.024;2023-07-29T08:26:42;4.05;;;1.55;;
27642;SDS011;15053;48.618;10.024;2023-07-29T08:29:08;2.67;;;1.33;;
27642;SDS011;15053;48.618;10.024;2023-07-29T08:31:35;2.85;;;1.50;;
27642;SDS011;15053;48.618;10.024;2023-07-29T08:34:01;1.67;;;1.08;;
27642;SDS011;15053;48.618;10.024;2023-07-29T08:36:28;2.00;;;1.35;;
27642;SDS011;15053;48.618;10.024;2023-07-29T08:38:55;1.52;;;1.13;;
27642;SDS011;15053;48.618;10.024;2023-07-29T08:41:25;1.85;;;1.50;;
27642;SDS011;15053;48.618;10.024;2023-07-29T08:43:59;2.38;;;1.20;;
27642;SDS011;15053;48.618;10.024;2023-07-29T08:46:30;2.85;;;1.23;;
27642;SDS011;15053;48.618;10.024;2023-07-29T08:48:57;2.10;;;1.20;;
27642;SDS011;15053;48.618;10.024;2023-07-29T08:51:24;1.58;;;1.30;;
27642;SDS011;15053;48.618;10.024;2023-07-29T08:53:53;2.08;;;1.52;;
27642;SDS011;15053;48.618;10.024;2023-07-29T08:56:20;3.08;;;1.60;;
27642;SDS011;15053;48.618;10.024;2023-07-29T08:58:46;1.98;;;1.50;;
27642;SDS011;15053;48.618;10.024;2023-07-29T09:01:14;1.50;;;1.40;;
27642;SDS011;15053;48.618;10.024;2023-07-29T09:03:42;3.88;;;1.38;;
27642;SDS011;15053;48.618;10.024;2023-07-29T09:06:08;4.57;;;1.40;;
27642;SDS011;15053;48.618;10.024;2023-07-29T09:08:35;2.25;;;1.58;;
27642;SDS011;15053;48.618;10.024;2023-07-29T09:11:02;2.75;;;1.70;;
27642;SDS011;15053;48.618;10.024;2023-07-29T09:13:29;3.65;;;1.85;;
27642;SDS011;15053;48.618;10.024;2023-07-29T09:15:57;3.85;;;2.10;;
27642;SDS011;15053;48.618;10.024;2023-07-29T09:18:25;3.13;;;1.83;;
27642;SDS011;15053;48.618;10.024;2023-07-29T09:20:52;2.38;;;1.92;;
27642;SDS011;15053;48.618;10.024;2023-07-29T09:23:19;2.08;;;1.88;;
27642;SDS011;15053;48.618;10.024;2023-07-29T09:25:46;1.73;;;1.50;;
27642;SDS011;15053;48.618;10.024;2023-07-29T09:28:16;2.70;;;1.80;;
27642;SDS011;15053;48.618;10.024;2023-07-29T09:30:45;2.00;;;1.77;;
27642;SDS011;15053;48.618;10.024;2023-07-29T09:33:13;3.40;;;1.90;;
27642;SDS011;15053;48.618;10.024;2023-07-29T09:35:39;3.28;;;2.00;;
27642;SDS011;15053;48.618;10.024;2023-07-29T09:38:06;2.72;;;2.20;;
27642;SDS011;15053;48.618;10.024;2023-07-29T09:40:34;1.75;;;1.65;;
27642;SDS011;15053;48.618;10.024;2023-07-29T09:45:33;2.08;;;1.73;;
27642;SDS011;15053;48.618;10.024;2023-07-29T09:48:02;3.63;;;2.08;;
27642;SDS011;15053;48.618;10.024;2023-07-29T09:50:31;3.08;;;2.33;;
27642;SDS011;15053;48.618;10.024;2023-07-29T09:52:57;3.03;;;2.33;;
27642;SDS011;15053;48.618;10.024;2023-07-29T09:55:25;2.47;;;1.98;;
27642;SDS011;15053;48.618;10.024;2023-07-29T09:57:58;3.00;;;1.90;;
27642;SDS011;15053;48.618;10.024;2023-07-29T10:00:33;3.35;;;1.95;;
27642;SDS011;15053;48.618;10.024;2023-07-29T10:03:00;2.63;;;2.22;;
27642;SDS011;15053;48.618;10.024;2023-07-29T10:05:27;2.95;;;2.13;;
27642;SDS011;15053;48.618;10.024;2023-07-29T10:07:55;2.45;;;2.25;;
27642;SDS011;15053;48.618;10.024;2023-07-29T10:10:22;3.97;;;2.38;;
27642;SDS011;15053;48.618;10.024;2023-07-29T10:12:49;3.55;;;2.50;;
27642;SDS011;15053;48.618;10.024;2023-07-29T10:15:16;2.83;;;2.42;;
27642;SDS011;15053;48.618;10.024;2023-07-29T10:17:43;6.85;;;4.68;;
27642;SDS011;15053;48.618;10.024;2023-07-29T10:20:15;2.83;;;2.55;;
27642;SDS011;15053;48.618;10.024;2023-07-29T10:22:42;10.38;;;6.28;;
27642;SDS011;15053;48.618;10.024;2023-07-29T10:25:10;5.00;;;2.55;;
27642;SDS011;15053;48.618;10.024;2023-07-29T10:27:55;3.72;;;2.60;;
27642;SDS011;15053;48.618;10.024;2023-07-29T10:30:28;3.70;;;2.53;;
27642;SDS011;15053;48.618;10.024;2023-07-29T10:32:55;3.97;;;2.45;;
27642;SDS011;15053;48.618;10.024;2023-07-29T10:35:25;3.55;;;2.55;;
27642;SDS011;15053;48.618;10.024;2023-07-29T10:37:54;4.00;;;2.22;;
27642;SDS011;15053;48.618;10.024;2023-07-29T10:40:21;3.17;;;2.55;;
27642;SDS011;15053;48.618;10.024;2023-07-29T10:43:09;4.93;;;2.53;;
27642;SDS011;15053;48.618;10.024;2023-07-29T10:45:37;2.70;;;2.50;;
27642;SDS011;15053;48.618;10.024;2023-07-29T10:48:06;2.55;;;2.35;;
27642;SDS011;15053;48.618;10.024;2023-07-29T10:50:36;5.57;;;2.42;;
27642;SDS011;15053;48.618;10.024;2023-07-29T10:53:03;4.38;;;2.40;;
27642;SDS011;15053;48.618;10.024;2023-07-29T10:55:33;3.13;;;2.53;;
27642;SDS011;15053;48.618;10.024;2023-07-29T10:58:07;3.13;;;2.38;;
27642;SDS011;15053;48.618;10.024;2023-07-29T11:00:35;4.45;;;2.60;;
27642;SDS011;15053;48.618;10.024;2023-07-29T11:03:03;3.85;;;2.65;;
27642;SDS011;15053;48.618;10.024;2023-07-29T11:05:42;4.43;;;2.50;;
27642;SDS011;15053;48.618;10.024;2023-07-29T11:08:17;3.80;;;2.60;;
27642;SDS011;15053;48.618;10.024;2023-07-29T11:10:57;2.55;;;2.35;;
27642;SDS011;15053;48.618;10.024;2023-07-29T11:13:29;4.50;;;2.60;;
27642;SDS011;15053;48.618;10.024;2023-07-29T11:15:57;3.38;;;2.65;;
27642;SDS011;15053;48.618;10.024;2023-07-29T11:18:32;3.25;;;2.30;;
27642;SDS011;15053;48.618;10.024;2023-07-29T11:21:00;3.53;;;2.55;;
27642;SDS011;15053;48.618;10.024;2023-07-29T11:23:32;2.58;;;2.33;;
27642;SDS011;15053;48.618;10.024;2023-07-29T11:26:00;3.03;;;2.13;;
27642;SDS011;15053;48.618;10.024;2023-07-29T11:28:28;8.15;;;2.63;;
27642;SDS011;15053;48.618;10.024;2023-07-29T11:30:55;10.30;;;2.35;;
27642;SDS011;15053;48.618;10.024;2023-07-29T11:33:26;3.15;;;2.45;;
27642;SDS011;15053;48.618;10.024;2023-07-29T11:35:54;3.17;;;2.50;;
27642;SDS011;15053;48.618;10.024;2023-07-29T11:38:22;3.55;;;2.63;;
27642;SDS011;15053;48.618;10.024;2023-07-29T11:40:56;5.63;;;2.40;;
27642;SDS011;15053;48.618;10.024;2023-07-29T11:43:26;2.97;;;2.38;;
27642;SDS011;15053;48.618;10.024;2023-07-29T11:45:53;4.32;;;2.38;;
27642;SDS011;15053;48.618;10.024;2023-07-29T11:48:26;2.85;;;2.45;;
27642;SDS011;15053;48.618;10.024;2023-07-29T11:50:57;3.25;;;2.95;;
27642;SDS011;15053;48.618;10.024;2023-07-29T11:53:30;5.18;;;2.70;;
27642;SDS011;15053;48.618;10.024;2023-07-29T11:55:57;3.72;;;3.08;;
27642;SDS011;15053;48.618;10.024;2023-07-29T11:58:24;2.88;;;2.50;;
27642;SDS011;15053;48.618;10.024;2023-07-29T12:00:52;2.88;;;2.67;;
27642;SDS011;15053;48.618;10.024;2023-07-29T12:03:19;4.60;;;2.88;;
27642;SDS011;15053;48.618;10.024;2023-07-29T12:05:47;5.22;;;2.75;;
27642;SDS011;15053;48.618;10.024;2023-07-29T12:08:15;2.85;;;2.25;;
27642;SDS011;15053;48.618;10.024;2023-07-29T12:10:42;4.50;;;3.20;;
27642;SDS011;15053;48.618;10.024;2023-07-29T12:13:08;2.40;;;2.20;;
27642;SDS011;15053;48.618;10.024;2023-07-29T12:15:37;3.55;;;2.35;;
27642;SDS011;15053;48.618;10.024;2023-07-29T12:18:05;3.00;;;1.95;;
27642;SDS011;15053;48.618;10.024;2023-07-29T12:20:32;2.28;;;1.90;;
27642;SDS011;15053;48.618;10.024;2023-07-29T12:23:00;3.90;;;2.20;;
27642;SDS011;15053;48.618;10.024;2023-07-29T12:25:32;2.30;;;2.10;;
27642;SDS011;15053;48.618;10.024;2023-07-29T12:28:02;3.45;;;2.22;;
27642;SDS011;15053;48.618;10.024;2023-07-29T12:30:31;4.45;;;2.35;;
27642;SDS011;15053;48.618;10.024;2023-07-29T12:32:58;2.40;;;2.20;;
27642;SDS011;15053;48.618;10.024;2023-07-29T12:35:33;2.40;;;2.15;;
27642;SDS011;15053;48.618;10.024;2023-07-29T12:38:01;3.22;;;2.40;;
27642;SDS011;15053;48.618;10.024;2023-07-29T12:40:27;2.95;;;2.00;;
27642;SDS011;15053;48.618;10.024;2023-07-29T12:42:54;2.60;;;2.35;;
27642;SDS011;15053;48.618;10.024;2023-07-29T12:45:21;2.40;;;2.20;;
27642;SDS011;15053;48.618;10.024;2023-07-29T12:47:53;4.55;;;2.30;;
27642;SDS011;15053;48.618;10.024;2023-07-29T12:50:20;3.25;;;2.45;;
27642;SDS011;15053;48.618;10.024;2023-07-29T12:52:47;3.03;;;2.40;;
27642;SDS011;15053;48.618;10.024;2023-07-29T12:55:14;4.10;;;2.22;;
27642;SDS011;15053;48.618;10.024;2023-07-29T12:57:41;3.35;;;2.00;;
27642;SDS011;15053;48.618;10.024;2023-07-29T13:00:10;4.05;;;2.30;;
27642;SDS011;15053;48.618;10.024;2023-07-29T13:02:36;2.58;;;2.20;;
27642;SDS011;15053;48.618;10.024;2023-07-29T13:05:03;3.92;;;2.35;;
27642;SDS011;15053;48.618;10.024;2023-07-29T13:07:30;2.63;;;2.15;;
27642;SDS011;15053;48.618;10.024;2023-07-29T13:09:57;3.40;;;2.63;;
27642;SDS011;15053;48.618;10.024;2023-07-29T13:12:23;2.60;;;2.10;;
27642;SDS011;15053;48.618;10.024;2023-07-29T13:14:50;3.38;;;2.30;;
27642;SDS011;15053;48.618;10.024;2023-07-29T13:17:16;2.50;;;2.13;;
27642;SDS011;15053;48.618;10.024;2023-07-29T13:19:43;3.13;;;2.15;;
27642;SDS011;15053;48.618;10.024;2023-07-29T13:22:09;3.13;;;2.22;;
27642;SDS011;15053;48.618;10.024;2023-07-29T13:24:36;2.35;;;2.15;;
27642;SDS011;15053;48.618;10.024;2023-07-29T13:27:02;5.38;;;2.17;;
27642;SDS011;15053;48.618;10.024;2023-07-29T13:29:29;3.78;;;2.65;;
27642;SDS011;15053;48.618;10.024;2023-07-29T13:31:55;5.00;;;2.78;;
27642;SDS011;15053;48.618;10.024;2023-07-29T13:34:22;4.38;;;2.58;;
27642;SDS011;15053;48.618;10.024;2023-07-29T13:36:49;3.72;;;2.53;;
27642;SDS011;15053;48.618;10.024;2023-07-29T13:39:15;2.50;;;2.30;;
27642;SDS011;15053;48.618;10.024;2023-07-29T13:41:42;2.63;;;2.05;;
27642;SDS011;15053;48.618;10.024;2023-07-29T13:44:08;3.05;;;2.65;;
27642;SDS011;15053;48.618;10.024;2023-07-29T13:46:35;3.63;;;2.22;;
27642;SDS011;15053;48.618;10.024;2023-07-29T13:49:02;2.38;;;2.17;;
27642;SDS011;15053;48.618;10.024;2023-07-29T13:51:29;3.20;;;2.42;;
27642;SDS011;15053;48.618;10.024;2023-07-29T13:53:55;2.53;;;2.22;;
27642;SDS011;15053;48.618;10.024;2023-07-29T13:56:22;3.28;;;2.25;;
27642;SDS011;15053;48.618;10.024;2023-07-29T13:58:49;2.63;;;2.40;;
27642;SDS011;15053;48.618;10.024;2023-07-29T14:01:15;3.67;;;2.28;;
27642;SDS011;15053;48.618;10.024;2023-07-29T14:03:42;4.20;;;2.53;;
27642;SDS011;15053;48.618;10.024;2023-07-29T14:06:08;4.43;;;2.53;;
27642;SDS011;15053;48.618;10.024;2023-07-29T14:08:35;2.40;;;2.17;;
27642;SDS011;15053;48.618;10.024;2023-07-29T14:11:02;2.95;;;2.40;;
27642;SDS011;15053;48.618;10.024;2023-07-29T14:13:28;3.15;;;2.50;;
27642;SDS011;15053;48.618;10.024;2023-07-29T14:15:55;6.07;;;3.70;;
27642;SDS011;15053;48.618;10.024;2023-07-29T14:18:21;4.05;;;3.42;;
27642;SDS011;15053;48.618;10.024;2023-07-29T14:20:48;4.93;;;3.38;;
27642;SDS011;15053;48.618;10.024;2023-07-29T14:23:15;4.28;;;3.28;;
27642;SDS011;15053;48.618;10.024;2023-07-29T14:25:42;5.93;;;3.30;;
27642;SDS011;15053;48.618;10.024;2023-07-29T14:28:08;3.65;;;3.28;;
27642;SDS011;15053;48.618;10.024;2023-07-29T14:30:35;5.10;;;3.53;;
27642;SDS011;15053;48.618;10.024;2023-07-29T14:33:01;3.92;;;3.33;;
27642;SDS011;15053;48.618;10.024;2023-07-29T14:35:28;5.38;;;4.10;;
27642;SDS011;15053;48.618;10.024;2023-07-29T14:37:55;5.03;;;3.25;;
27642;SDS011;15053;48.618;10.024;2023-07-29T14:40:21;6.10;;;3.72;;
27642;SDS011;15053;48.618;10.024;2023-07-29T14:42:48;6.15;;;3.63;;
27642;SDS011;15053;48.618;10.024;2023-07-29T14:45:15;4.95;;;3.85;;
27642;SDS011;15053;48.618;10.024;2023-07-29T14:47:41;3.85;;;3.13;;